sensor_id;sensor_type;location;lat;lon;timestamp;temperature;humidity
36352;DHT22;22382;44.768;17.206;2023-01-15T00:02:11;1.50;99.90
36352;DHT22;22382;44.768;17.206;2023-01-15T00:04:42;1.60;99.90
36352;DHT22;22382;44.768;17.206;2023-01-15T00:07:09;1.60;99.90
36352;DHT22;22382;44.768;17.206;2023-01-15T00:09:36;1.50;99.90
36352;DHT22;22382;44.768;17.206;2023-01-15T00:12:03;1.50;99.90
36352;DHT22;22382;44.768;17.206;2023-01-15T00:14:30;1.60;99.90
36352;DHT22;22382;44.768;17.206;2023-01-15T00:16:57;1.70;99.90
36352;DHT22;22382;44.768;17.206;2023-01-15T00:19:24;1.70;99.90
36352;DHT22;22382;44.768;17.206;2023-01-15T00:21:52;1.70;99.90
36352;DHT22;22382;44.768;17.206;2023-01-15T00:24:19;1.80;99.90
36352;DHT22;22382;44.768;17.206;2023-01-15T00:27:05;1.80;99.90
36352;DHT22;22382;44.768;17.206;2023-01-15T00:29:50;1.70;99.90
36352;DHT22;22382;44.768;17.206;2023-01-15T00:32:17;1.60;99.90
36352;DHT22;22382;44.768;17.206;2023-01-15T00:34:44;1.60;99.90
36352;DHT22;22382;44.768;17.206;2023-01-15T00:37:11;1.60;99.90
36352;DHT22;22382;44.768;17.206;2023-01-15T00:39:38;1.50;99.90
36352;DHT22;22382;44.768;17.206;2023-01-15T00:42:05;1.60;99.90
36352;DHT22;22382;44.768;17.206;2023-01-15T00:44:32;1.50;99.90
36352;DHT22;22382;44.768;17.206;2023-01-15T00:46:59;1.50;99.90
36352;DHT22;22382;44.768;17.206;2023-01-15T00:49:27;1.50;99.90
36352;DHT22;22382;44.768;17.206;2023-01-15T00:51:54;1.60;99.90
36352;DHT22;22382;44.768;17.206;2023-01-15T00:54:21;1.60;99.90
36352;DHT22;22382;44.768;17.206;2023-01-15T00:56:49;1.70;99.90
36352;DHT22;22382;44.768;17.206;2023-01-15T00:59:16;1.60;99.90
36352;DHT22;22382;44.768;17.206;2023-01-15T01:01:44;1.60;99.90
36352;DHT22;22382;44.768;17.206;2023-01-15T01:04:11;1.60;99.90
36352;DHT22;22382;44.768;17.206;2023-01-15T01:06:38;1.60;99.90
36352;DHT22;22382;44.768;17.206;2023-01-15T01:09:05;1.60;99.90
36352;DHT22;22382;44.768;17.206;2023-01-15T01:11:32;1.70;99.90
36352;DHT22;22382;44.768;17.206;2023-01-15T01:14:00;1.80;99.90
36352;DHT22;22382;44.768;17.206;2023-01-15T01:16:32;1.80;99.90
36352;DHT22;22382;44.768;17.206;2023-01-15T01:19:23;1.90;99.90
36352;DHT22;22382;44.768;17.206;2023-01-15T01:21:50;1.80;99.90
36352;DHT22;22382;44.768;17.206;2023-01-15T01:24:20;1.70;99.90
36352;DHT22;22382;44.768;17.206;2023-01-15T01:26:49;1.60;99.90
36352;DHT22;22382;44.768;17.206;2023-01-15T01:29:20;1.50;99.90
36352;DHT22;22382;44.768;17.206;2023-01-15T01:31:48;1.40;99.90
36352;DHT22;22382;44.768;17.206;2023-01-15T01:34:17;1.50;99.90
36352;DHT22;22382;44.768;17.206;2023-01-15T01:36:44;1.50;99.90
36352;DHT22;22382;44.768;17.206;2023-01-15T01:39:14;1.50;99.90
36352;DHT22;22382;44.768;17.206;2023-01-15T01:41:41;1.60;99.90
36352;DHT22;22382;44.768;17.206;2023-01-15T01:47:06;1.60;99.90
36352;DHT22;22382;44.768;17.206;2023-01-15T01:49:35;1.60;99.90
36352;DHT22;22382;44.768;17.206;2023-01-15T01:52:14;1.60;99.90
36352;DHT22;22382;44.768;17.206;2023-01-15T01:54:43;1.60;99.90
36352;DHT22;22382;44.768;17.206;2023-01-15T01:57:12;1.70;99.90
36352;DHT22;22382;44.768;17.206;2023-01-15T01:59:42;1.60;99.90
36352;DHT22;22382;44.768;17.206;2023-01-15T02:02:09;1.50;99.90
36352;DHT22;22382;44.768;17.206;2023-01-15T02:04:37;1.50;99.90
36352;DHT22;22382;44.768;17.206;2023-01-15T02:07:05;1.50;99.90
36352;DHT22;22382;44.768;17.206;2023-01-15T02:09:32;1.50;99.90
36352;DHT22;22382;44.768;17.206;2023-01-15T02:12:11;1.60;99.90
36352;DHT22;22382;44.768;17.206;2023-01-15T02:15:08;1.70;99.90
36352;DHT22;22382;44.768;17.206;2023-01-15T02:25:32;1.70;99.90
36352;DHT22;22382;44.768;17.206;2023-01-15T02:28:23;1.70;99.90
36352;DHT22;22382;44.768;17.206;2023-01-15T02:31:07;1.60;99.90
36352;DHT22;22382;44.768;17.206;2023-01-15T02:33:39;1.50;99.90
36352;DHT22;22382;44.768;17.206;2023-01-15T02:36:08;1.40;99.90
36352;DHT22;22382;44.768;17.206;2023-01-15T02:38:45;1.40;99.90
36352;DHT22;22382;44.768;17.206;2023-01-15T02:41:14;1.30;99.90
36352;DHT22;22382;44.768;17.206;2023-01-15T02:43:47;1.40;99.90
36352;DHT22;22382;44.768;17.206;2023-01-15T02:46:17;1.50;99.90
36352;DHT22;22382;44.768;17.206;2023-01-15T02:48:49;1.50;99.90
36352;DHT22;22382;44.768;17.206;2023-01-15T02:51:22;1.40;99.90
36352;DHT22;22382;44.768;17.206;2023-01-15T02:53:54;1.30;99.90
36352;DHT22;22382;44.768;17.206;2023-01-15T02:56:27;1.50;99.90
36352;DHT22;22382;44.768;17.206;2023-01-15T02:59:01;1.50;99.90
36352;DHT22;22382;44.768;17.206;2023-01-15T03:01:42;1.30;99.90
36352;DHT22;22382;44.768;17.206;2023-01-15T03:04:34;1.10;99.90
36352;DHT22;22382;44.768;17.206;2023-01-15T03:09:34;1.10;99.90
36352;DHT22;22382;44.768;17.206;2023-01-15T03:12:26;1.20;99.90
36352;DHT22;22382;44.768;17.206;2023-01-15T03:17:36;0.90;99.90
36352;DHT22;22382;44.768;17.206;2023-01-15T03:20:11;0.80;99.90
36352;DHT22;22382;44.768;17.206;2023-01-15T03:22:44;0.70;99.90
36352;DHT22;22382;44.768;17.206;2023-01-15T03:25:23;0.80;99.90
36352;DHT22;22382;44.768;17.206;2023-01-15T03:27:54;0.80;99.90
36352;DHT22;22382;44.768;17.206;2023-01-15T03:30:23;0.90;99.90
36352;DHT22;22382;44.768;17.206;2023-01-15T03:32:52;0.90;99.90
36352;DHT22;22382;44.768;17.206;2023-01-15T03:38:05;1.00;99.90
36352;DHT22;22382;44.768;17.206;2023-01-15T03:40:33;1.00;99.90
36352;DHT22;22382;44.768;17.206;2023-01-15T03:43:07;1.00;99.90
36352;DHT22;22382;44.768;17.206;2023-01-15T03:45:55;1.00;99.90
36352;DHT22;22382;44.768;17.206;2023-01-15T03:49:24;1.10;99.90
36352;DHT22;22382;44.768;17.206;2023-01-15T03:51:42;1.10;99.90
36352;DHT22;22382;44.768;17.206;2023-01-15T03:54:16;1.10;99.90
36352;DHT22;22382;44.768;17.206;2023-01-15T03:57:10;1.10;99.90
36352;DHT22;22382;44.768;17.206;2023-01-15T03:59:55;1.10;99.90
36352;DHT22;22382;44.768;17.206;2023-01-15T04:02:26;1.10;99.90
36352;DHT22;22382;44.768;17.206;2023-01-15T04:04:57;1.00;99.90
36352;DHT22;22382;44.768;17.206;2023-01-15T04:07:25;1.00;99.90
36352;DHT22;22382;44.768;17.206;2023-01-15T04:09:52;1.00;99.90
36352;DHT22;22382;44.768;17.206;2023-01-15T04:12:19;0.90;99.90
36352;DHT22;22382;44.768;17.206;2023-01-15T04:14:46;0.80;99.90
36352;DHT22;22382;44.768;17.206;2023-01-15T04:17:14;0.80;99.90
36352;DHT22;22382;44.768;17.206;2023-01-15T04:19:41;0.90;99.90
36352;DHT22;22382;44.768;17.206;2023-01-15T04:22:10;0.90;99.90
36352;DHT22;22382;44.768;17.206;2023-01-15T04:24:37;0.90;99.90
36352;DHT22;22382;44.768;17.206;2023-01-15T04:27:04;0.80;99.90
36352;DHT22;22382;44.768;17.206;2023-01-15T04:29:31;0.90;99.90
36352;DHT22;22382;44.768;17.206;2023-01-15T04:31:59;0.90;99.90
36352;DHT22;22382;44.768;17.206;2023-01-15T04:34:27;1.00;99.90
36352;DHT22;22382;44.768;17.206;2023-01-15T04:36:55;1.00;99.90
36352;DHT22;22382;44.768;17.206;2023-01-15T04:39:22;0.90;99.90
36352;DHT22;22382;44.768;17.206;2023-01-15T04:41:49;0.80;99.90
36352;DHT22;22382;44.768;17.206;2023-01-15T04:44:36;0.70;99.90
36352;DHT22;22382;44.768;17.206;2023-01-15T04:47:04;0.60;99.90
36352;DHT22;22382;44.768;17.206;2023-01-15T04:49:31;0.60;99.90
36352;DHT22;22382;44.768;17.206;2023-01-15T04:51:59;0.70;99.90
36352;DHT22;22382;44.768;17.206;2023-01-15T04:54:26;0.70;99.90
36352;DHT22;22382;44.768;17.206;2023-01-15T04:56:53;0.80;99.90
36352;DHT22;22382;44.768;17.206;2023-01-15T04:59:25;0.70;99.90
36352;DHT22;22382;44.768;17.206;2023-01-15T05:01:52;0.70;99.90
36352;DHT22;22382;44.768;17.206;2023-01-15T05:04:31;0.70;99.90
36352;DHT22;22382;44.768;17.206;2023-01-15T05:07:00;0.80;99.90
36352;DHT22;22382;44.768;17.206;2023-01-15T05:09:28;0.90;99.90
36352;DHT22;22382;44.768;17.206;2023-01-15T05:11:55;0.90;99.90
36352;DHT22;22382;44.768;17.206;2023-01-15T05:14:22;1.00;99.90
36352;DHT22;22382;44.768;17.206;2023-01-15T05:16:49;0.90;99.90
36352;DHT22;22382;44.768;17.206;2023-01-15T05:19:16;0.90;99.90
36352;DHT22;22382;44.768;17.206;2023-01-15T05:21:44;0.90;99.90
36352;DHT22;22382;44.768;17.206;2023-01-15T05:24:16;0.80;99.90
36352;DHT22;22382;44.768;17.206;2023-01-15T05:26:43;0.70;99.90
36352;DHT22;22382;44.768;17.206;2023-01-15T05:29:11;0.70;99.90
36352;DHT22;22382;44.768;17.206;2023-01-15T05:31:38;0.70;99.90
36352;DHT22;22382;44.768;17.206;2023-01-15T05:34:08;0.60;99.90
36352;DHT22;22382;44.768;17.206;2023-01-15T05:36:35;0.50;99.90
36352;DHT22;22382;44.768;17.206;2023-01-15T05:39:04;0.50;99.90
36352;DHT22;22382;44.768;17.206;2023-01-15T05:41:31;0.40;99.90
36352;DHT22;22382;44.768;17.206;2023-01-15T05:46:47;0.60;99.90
36352;DHT22;22382;44.768;17.206;2023-01-15T05:49:17;0.60;99.90
36352;DHT22;22382;44.768;17.206;2023-01-15T05:51:45;0.70;99.90
36352;DHT22;22382;44.768;17.206;2023-01-15T05:54:18;0.70;99.90
36352;DHT22;22382;44.768;17.206;2023-01-15T05:56:45;0.70;99.90
36352;DHT22;22382;44.768;17.206;2023-01-15T05:59:14;0.70;99.90
36352;DHT22;22382;44.768;17.206;2023-01-15T06:01:42;0.50;99.90
36352;DHT22;22382;44.768;17.206;2023-01-15T06:04:11;0.40;99.90
36352;DHT22;22382;44.768;17.206;2023-01-15T06:06:41;0.40;99.90
36352;DHT22;22382;44.768;17.206;2023-01-15T06:09:08;0.30;99.90
36352;DHT22;22382;44.768;17.206;2023-01-15T06:11:35;0.20;99.90
36352;DHT22;22382;44.768;17.206;2023-01-15T06:14:03;0.10;99.90
36352;DHT22;22382;44.768;17.206;2023-01-15T06:16:31;0.20;99.90
36352;DHT22;22382;44.768;17.206;2023-01-15T06:19:02;0.30;99.90
36352;DHT22;22382;44.768;17.206;2023-01-15T06:21:31;0.30;99.90
36352;DHT22;22382;44.768;17.206;2023-01-15T06:23:59;0.30;99.90
36352;DHT22;22382;44.768;17.206;2023-01-15T06:26:26;0.30;99.90
36352;DHT22;22382;44.768;17.206;2023-01-15T06:28:53;0.30;99.90
36352;DHT22;22382;44.768;17.206;2023-01-15T06:31:22;0.20;99.90
36352;DHT22;22382;44.768;17.206;2023-01-15T06:33:49;0.30;99.90
36352;DHT22;22382;44.768;17.206;2023-01-15T06:36:19;0.30;99.90
36352;DHT22;22382;44.768;17.206;2023-01-15T06:38:49;0.40;99.90
36352;DHT22;22382;44.768;17.206;2023-01-15T06:41:19;0.40;99.90
36352;DHT22;22382;44.768;17.206;2023-01-15T06:44:05;0.40;99.90
36352;DHT22;22382;44.768;17.206;2023-01-15T06:46:53;0.40;99.90
36352;DHT22;22382;44.768;17.206;2023-01-15T06:49:39;0.50;99.90
36352;DHT22;22382;44.768;17.206;2023-01-15T06:52:06;0.60;99.90
36352;DHT22;22382;44.768;17.206;2023-01-15T06:54:33;0.70;99.90
36352;DHT22;22382;44.768;17.206;2023-01-15T06:57:01;0.80;99.90
36352;DHT22;22382;44.768;17.206;2023-01-15T06:59:28;0.90;99.90
36352;DHT22;22382;44.768;17.206;2023-01-15T07:01:55;1.00;99.90
36352;DHT22;22382;44.768;17.206;2023-01-15T07:04:22;1.00;99.90
36352;DHT22;22382;44.768;17.206;2023-01-15T07:06:49;1.10;99.90
36352;DHT22;22382;44.768;17.206;2023-01-15T07:09:16;1.10;99.90
36352;DHT22;22382;44.768;17.206;2023-01-15T07:11:43;1.20;99.90
36352;DHT22;22382;44.768;17.206;2023-01-15T07:14:23;1.20;99.90
36352;DHT22;22382;44.768;17.206;2023-01-15T07:16:51;1.30;99.90
36352;DHT22;22382;44.768;17.206;2023-01-15T07:19:18;1.40;99.90
36352;DHT22;22382;44.768;17.206;2023-01-15T07:21:46;1.60;99.90
36352;DHT22;22382;44.768;17.206;2023-01-15T07:24:13;1.70;99.90
36352;DHT22;22382;44.768;17.206;2023-01-15T07:26:41;1.80;99.90
36352;DHT22;22382;44.768;17.206;2023-01-15T07:29:08;1.90;99.90
36352;DHT22;22382;44.768;17.206;2023-01-15T07:31:35;1.90;99.90
36352;DHT22;22382;44.768;17.206;2023-01-15T07:34:03;1.80;99.90
36352;DHT22;22382;44.768;17.206;2023-01-15T07:36:31;1.80;99.90
36352;DHT22;22382;44.768;17.206;2023-01-15T07:38:58;1.90;99.90
36352;DHT22;22382;44.768;17.206;2023-01-15T07:41:25;1.80;99.90
36352;DHT22;22382;44.768;17.206;2023-01-15T07:44:11;1.90;99.90
36352;DHT22;22382;44.768;17.206;2023-01-15T07:46:57;2.10;99.90
36352;DHT22;22382;44.768;17.206;2023-01-15T07:49:43;2.20;99.90
36352;DHT22;22382;44.768;17.206;2023-01-15T07:52:18;2.30;99.90
36352;DHT22;22382;44.768;17.206;2023-01-15T07:54:48;2.20;99.90
36352;DHT22;22382;44.768;17.206;2023-01-15T07:57:18;2.40;99.90
36352;DHT22;22382;44.768;17.206;2023-01-15T07:59:46;2.20;99.90
36352;DHT22;22382;44.768;17.206;2023-01-15T08:02:13;2.20;99.90
36352;DHT22;22382;44.768;17.206;2023-01-15T08:04:41;2.30;99.90
36352;DHT22;22382;44.768;17.206;2023-01-15T08:07:08;2.70;99.90
36352;DHT22;22382;44.768;17.206;2023-01-15T08:09:35;2.80;99.90
36352;DHT22;22382;44.768;17.206;2023-01-15T08:12:03;3.10;99.90
36352;DHT22;22382;44.768;17.206;2023-01-15T08:14:49;3.40;99.90
36352;DHT22;22382;44.768;17.206;2023-01-15T08:17:36;3.70;99.90
36352;DHT22;22382;44.768;17.206;2023-01-15T08:20:05;3.70;99.90
36352;DHT22;22382;44.768;17.206;2023-01-15T08:22:32;3.90;99.90
36352;DHT22;22382;44.768;17.206;2023-01-15T08:25:00;4.10;99.90
36352;DHT22;22382;44.768;17.206;2023-01-15T08:27:27;4.10;99.90
36352;DHT22;22382;44.768;17.206;2023-01-15T08:29:55;4.40;99.90
36352;DHT22;22382;44.768;17.206;2023-01-15T08:32:23;4.20;99.90
36352;DHT22;22382;44.768;17.206;2023-01-15T08:34:50;4.30;99.90
36352;DHT22;22382;44.768;17.206;2023-01-15T08:37:18;4.50;99.90
36352;DHT22;22382;44.768;17.206;2023-01-15T08:39:45;4.70;99.90
36352;DHT22;22382;44.768;17.206;2023-01-15T08:42:12;5.00;99.90
36352;DHT22;22382;44.768;17.206;2023-01-15T08:44:39;5.00;99.90
36352;DHT22;22382;44.768;17.206;2023-01-15T08:47:06;5.00;99.90
36352;DHT22;22382;44.768;17.206;2023-01-15T08:49:33;5.20;99.90
36352;DHT22;22382;44.768;17.206;2023-01-15T08:52:00;4.90;99.90
36352;DHT22;22382;44.768;17.206;2023-01-15T08:54:28;4.90;99.90
36352;DHT22;22382;44.768;17.206;2023-01-15T08:56:55;5.00;99.90
36352;DHT22;22382;44.768;17.206;2023-01-15T08:59:22;5.20;99.90
36352;DHT22;22382;44.768;17.206;2023-01-15T09:01:49;5.30;99.90
36352;DHT22;22382;44.768;17.206;2023-01-15T09:04:19;5.30;99.90
36352;DHT22;22382;44.768;17.206;2023-01-15T09:06:47;5.40;99.90
36352;DHT22;22382;44.768;17.206;2023-01-15T09:09:15;5.30;99.90
36352;DHT22;22382;44.768;17.206;2023-01-15T09:11:44;5.50;99.90
36352;DHT22;22382;44.768;17.206;2023-01-15T09:14:13;5.60;99.90
36352;DHT22;22382;44.768;17.206;2023-01-15T09:17:01;5.80;99.90
36352;DHT22;22382;44.768;17.206;2023-01-15T09:19:28;5.90;99.90
36352;DHT22;22382;44.768;17.206;2023-01-15T09:21:54;5.90;99.90
36352;DHT22;22382;44.768;17.206;2023-01-15T09:24:22;5.90;99.90
36352;DHT22;22382;44.768;17.206;2023-01-15T09:26:49;5.80;99.90
36352;DHT22;22382;44.768;17.206;2023-01-15T09:29:19;5.80;99.90
36352;DHT22;22382;44.768;17.206;2023-01-15T09:31:46;5.90;99.90
36352;DHT22;22382;44.768;17.206;2023-01-15T09:34:13;6.10;99.90
36352;DHT22;22382;44.768;17.206;2023-01-15T09:36:40;6.20;99.90
36352;DHT22;22382;44.768;17.206;2023-01-15T09:39:07;6.30;99.90
36352;DHT22;22382;44.768;17.206;2023-01-15T09:42:20;6.40;99.90
36352;DHT22;22382;44.768;17.206;2023-01-15T09:51:01;6.80;99.90
36352;DHT22;22382;44.768;17.206;2023-01-15T09:56:28;7.10;99.90
36352;DHT22;22382;44.768;17.206;2023-01-15T09:58:57;7.30;99.90
36352;DHT22;22382;44.768;17.206;2023-01-15T10:01:27;7.40;99.90
36352;DHT22;22382;44.768;17.206;2023-01-15T10:04:03;7.50;99.90
36352;DHT22;22382;44.768;17.206;2023-01-15T10:06:40;7.70;99.50
36352;DHT22;22382;44.768;17.206;2023-01-15T10:09:19;7.80;99.90
36352;DHT22;22382;44.768;17.206;2023-01-15T10:12:06;8.00;99.30
36352;DHT22;22382;44.768;17.206;2023-01-15T10:15:44;8.20;98.20
36352;DHT22;22382;44.768;17.206;2023-01-15T10:17:54;8.50;95.70
36352;DHT22;22382;44.768;17.206;2023-01-15T10:31:47;9.30;81.40
36352;DHT22;22382;44.768;17.206;2023-01-15T10:43:00;10.00;74.20
36352;DHT22;22382;44.768;17.206;2023-01-15T10:45:33;10.00;70.10
36352;DHT22;22382;44.768;17.206;2023-01-15T10:50:49;10.10;68.10
36352;DHT22;22382;44.768;17.206;2023-01-15T10:53:31;10.30;72.60
36352;DHT22;22382;44.768;17.206;2023-01-15T10:56:14;10.50;68.80
36352;DHT22;22382;44.768;17.206;2023-01-15T10:58:56;10.60;72.30
36352;DHT22;22382;44.768;17.206;2023-01-15T11:01:25;10.60;68.30
36352;DHT22;22382;44.768;17.206;2023-01-15T11:03:53;10.80;68.10
36352;DHT22;22382;44.768;17.206;2023-01-15T11:06:22;10.90;64.30
36352;DHT22;22382;44.768;17.206;2023-01-15T11:08:53;11.00;64.90
36352;DHT22;22382;44.768;17.206;2023-01-15T11:12:44;11.10;67.20
36352;DHT22;22382;44.768;17.206;2023-01-15T11:14:46;11.10;63.90
36352;DHT22;22382;44.768;17.206;2023-01-15T11:17:51;11.30;65.00
36352;DHT22;22382;44.768;17.206;2023-01-15T11:20:45;11.30;64.00
36352;DHT22;22382;44.768;17.206;2023-01-15T11:23:15;11.40;63.50
36352;DHT22;22382;44.768;17.206;2023-01-15T11:25:55;11.40;64.70
36352;DHT22;22382;44.768;17.206;2023-01-15T11:28:38;11.40;62.50
36352;DHT22;22382;44.768;17.206;2023-01-15T11:31:12;11.60;61.10
36352;DHT22;22382;44.768;17.206;2023-01-15T11:33:58;11.80;61.70
36352;DHT22;22382;44.768;17.206;2023-01-15T11:36:28;11.80;59.40
36352;DHT22;22382;44.768;17.206;2023-01-15T11:38:56;11.90;59.90
36352;DHT22;22382;44.768;17.206;2023-01-15T11:44:14;12.20;60.30
36352;DHT22;22382;44.768;17.206;2023-01-15T11:46:59;12.40;58.50
36352;DHT22;22382;44.768;17.206;2023-01-15T11:49:52;12.60;58.10
36352;DHT22;22382;44.768;17.206;2023-01-15T11:52:42;12.70;58.70
36352;DHT22;22382;44.768;17.206;2023-01-15T11:55:13;12.90;57.30
36352;DHT22;22382;44.768;17.206;2023-01-15T11:57:41;13.00;57.90
36352;DHT22;22382;44.768;17.206;2023-01-15T12:02:48;13.30;54.40
36352;DHT22;22382;44.768;17.206;2023-01-15T12:05:22;13.50;52.60
36352;DHT22;22382;44.768;17.206;2023-01-15T12:07:52;13.70;54.20
36352;DHT22;22382;44.768;17.206;2023-01-15T12:10:53;13.70;52.10
36352;DHT22;22382;44.768;17.206;2023-01-15T12:17:10;13.80;51.20
36352;DHT22;22382;44.768;17.206;2023-01-15T12:27:43;14.20;50.80
36352;DHT22;22382;44.768;17.206;2023-01-15T12:33:02;14.30;49.90
36352;DHT22;22382;44.768;17.206;2023-01-15T12:35:36;14.40;51.00
36352;DHT22;22382;44.768;17.206;2023-01-15T12:40:58;14.40;48.80
36352;DHT22;22382;44.768;17.206;2023-01-15T12:43:27;14.40;50.70
36352;DHT22;22382;44.768;17.206;2023-01-15T12:46:28;14.40;51.30
36352;DHT22;22382;44.768;17.206;2023-01-15T12:49:03;14.50;50.20
36352;DHT22;22382;44.768;17.206;2023-01-15T12:51:45;14.60;49.50
36352;DHT22;22382;44.768;17.206;2023-01-15T12:54:15;14.70;50.20
36352;DHT22;22382;44.768;17.206;2023-01-15T12:57:02;14.70;50.20
36352;DHT22;22382;44.768;17.206;2023-01-15T12:59:40;14.80;50.40
36352;DHT22;22382;44.768;17.206;2023-01-15T13:02:16;14.80;50.80
36352;DHT22;22382;44.768;17.206;2023-01-15T13:04:52;14.80;49.80
36352;DHT22;22382;44.768;17.206;2023-01-15T13:07:33;14.70;50.10
36352;DHT22;22382;44.768;17.206;2023-01-15T13:12:35;14.60;51.70
36352;DHT22;22382;44.768;17.206;2023-01-15T13:15:04;14.60;51.80
36352;DHT22;22382;44.768;17.206;2023-01-15T13:17:54;14.60;51.50
36352;DHT22;22382;44.768;17.206;2023-01-15T13:20:49;14.60;52.00
36352;DHT22;22382;44.768;17.206;2023-01-15T13:26:39;14.60;53.10
36352;DHT22;22382;44.768;17.206;2023-01-15T13:39:52;14.70;53.20
36352;DHT22;22382;44.768;17.206;2023-01-15T13:42:23;14.70;53.30
36352;DHT22;22382;44.768;17.206;2023-01-15T13:45:22;14.60;53.60
36352;DHT22;22382;44.768;17.206;2023-01-15T13:48:00;14.50;53.80
36352;DHT22;22382;44.768;17.206;2023-01-15T13:50:35;14.60;53.50
36352;DHT22;22382;44.768;17.206;2023-01-15T13:55:37;14.50;54.10
36352;DHT22;22382;44.768;17.206;2023-01-15T13:58:28;14.50;54.20
36352;DHT22;22382;44.768;17.206;2023-01-15T14:04:04;14.40;55.70
36352;DHT22;22382;44.768;17.206;2023-01-15T14:06:51;14.30;55.20
36352;DHT22;22382;44.768;17.206;2023-01-15T14:15:01;14.00;56.50
36352;DHT22;22382;44.768;17.206;2023-01-15T14:18:02;14.00;57.10
36352;DHT22;22382;44.768;17.206;2023-01-15T14:31:44;13.60;57.50
36352;DHT22;22382;44.768;17.206;2023-01-15T14:34:27;13.50;58.50
36352;DHT22;22382;44.768;17.206;2023-01-15T14:37:02;13.50;60.00
36352;DHT22;22382;44.768;17.206;2023-01-15T14:39:45;13.40;57.90
36352;DHT22;22382;44.768;17.206;2023-01-15T14:47:50;13.20;59.60
36352;DHT22;22382;44.768;17.206;2023-01-15T14:50:28;13.10;59.70
36352;DHT22;22382;44.768;17.206;2023-01-15T15:04:11;12.80;61.60
36352;DHT22;22382;44.768;17.206;2023-01-15T15:06:57;12.70;63.10
36352;DHT22;22382;44.768;17.206;2023-01-15T15:09:47;12.60;62.70
36352;DHT22;22382;44.768;17.206;2023-01-15T15:26:04;12.60;63.90
36352;DHT22;22382;44.768;17.206;2023-01-15T15:28:31;12.50;63.90
36352;DHT22;22382;44.768;17.206;2023-01-15T15:30:59;12.40;65.00
36352;DHT22;22382;44.768;17.206;2023-01-15T15:33:39;12.40;65.60
36352;DHT22;22382;44.768;17.206;2023-01-15T15:36:07;12.40;67.60
36352;DHT22;22382;44.768;17.206;2023-01-15T15:38:35;12.40;66.10
36352;DHT22;22382;44.768;17.206;2023-01-15T15:41:09;12.30;65.90
36352;DHT22;22382;44.768;17.206;2023-01-15T15:43:50;12.30;67.20
36352;DHT22;22382;44.768;17.206;2023-01-15T15:46:37;12.30;67.20
36352;DHT22;22382;44.768;17.206;2023-01-15T15:49:22;12.30;67.30
36352;DHT22;22382;44.768;17.206;2023-01-15T15:51:51;12.30;67.30
36352;DHT22;22382;44.768;17.206;2023-01-15T15:54:25;12.30;66.40
36352;DHT22;22382;44.768;17.206;2023-01-15T16:01:57;12.20;66.70
36352;DHT22;22382;44.768;17.206;2023-01-15T16:04:26;12.30;67.10
36352;DHT22;22382;44.768;17.206;2023-01-15T16:06:53;12.20;66.90
36352;DHT22;22382;44.768;17.206;2023-01-15T16:09:22;12.20;67.00
36352;DHT22;22382;44.768;17.206;2023-01-15T16:11:51;12.20;68.00
36352;DHT22;22382;44.768;17.206;2023-01-15T16:14:19;12.20;66.90
36352;DHT22;22382;44.768;17.206;2023-01-15T16:16:48;12.30;67.30
36352;DHT22;22382;44.768;17.206;2023-01-15T16:19:22;12.40;70.00
36352;DHT22;22382;44.768;17.206;2023-01-15T16:21:51;12.30;66.60
36352;DHT22;22382;44.768;17.206;2023-01-15T16:24:26;12.30;66.90
36352;DHT22;22382;44.768;17.206;2023-01-15T16:26:58;12.30;67.10
36352;DHT22;22382;44.768;17.206;2023-01-15T16:29:28;12.30;66.50
36352;DHT22;22382;44.768;17.206;2023-01-15T16:31:56;12.40;67.60
36352;DHT22;22382;44.768;17.206;2023-01-15T16:34:30;12.30;68.60
36352;DHT22;22382;44.768;17.206;2023-01-15T16:36:59;12.30;67.80
36352;DHT22;22382;44.768;17.206;2023-01-15T16:39:37;12.30;66.20
36352;DHT22;22382;44.768;17.206;2023-01-15T16:42:23;12.20;67.50
36352;DHT22;22382;44.768;17.206;2023-01-15T16:45:01;12.10;68.40
36352;DHT22;22382;44.768;17.206;2023-01-15T16:47:32;12.20;67.10
36352;DHT22;22382;44.768;17.206;2023-01-15T16:52:53;12.20;66.40
36352;DHT22;22382;44.768;17.206;2023-01-15T16:55:34;12.10;67.70
36352;DHT22;22382;44.768;17.206;2023-01-15T17:00:43;12.10;67.70
36352;DHT22;22382;44.768;17.206;2023-01-15T17:05:39;12.20;66.90
36352;DHT22;22382;44.768;17.206;2023-01-15T17:08:18;12.20;65.50
36352;DHT22;22382;44.768;17.206;2023-01-15T17:10:58;12.10;66.00
36352;DHT22;22382;44.768;17.206;2023-01-15T17:14:18;12.10;67.10
36352;DHT22;22382;44.768;17.206;2023-01-15T17:16:45;12.00;67.50
36352;DHT22;22382;44.768;17.206;2023-01-15T17:19:14;12.10;66.30
36352;DHT22;22382;44.768;17.206;2023-01-15T17:21:42;12.10;66.90
36352;DHT22;22382;44.768;17.206;2023-01-15T17:24:13;12.00;66.80
36352;DHT22;22382;44.768;17.206;2023-01-15T17:26:40;11.90;67.40
36352;DHT22;22382;44.768;17.206;2023-01-15T17:29:09;12.00;67.10
36352;DHT22;22382;44.768;17.206;2023-01-15T17:31:37;12.00;66.60
36352;DHT22;22382;44.768;17.206;2023-01-15T17:34:06;11.90;67.40
36352;DHT22;22382;44.768;17.206;2023-01-15T17:36:33;11.90;67.10
36352;DHT22;22382;44.768;17.206;2023-01-15T17:39:00;11.90;66.50
36352;DHT22;22382;44.768;17.206;2023-01-15T17:41:27;11.90;66.80
36352;DHT22;22382;44.768;17.206;2023-01-15T17:43:54;11.90;65.70
36352;DHT22;22382;44.768;17.206;2023-01-15T17:46:21;11.90;65.10
36352;DHT22;22382;44.768;17.206;2023-01-15T17:48:48;11.90;66.20
36352;DHT22;22382;44.768;17.206;2023-01-15T17:51:15;11.90;65.30
36352;DHT22;22382;44.768;17.206;2023-01-15T17:53:42;11.90;66.00
36352;DHT22;22382;44.768;17.206;2023-01-15T17:56:10;11.90;64.90
36352;DHT22;22382;44.768;17.206;2023-01-15T17:58:55;11.90;64.60
36352;DHT22;22382;44.768;17.206;2023-01-15T18:01:46;12.00;63.60
36352;DHT22;22382;44.768;17.206;2023-01-15T18:04:38;11.90;64.40
36352;DHT22;22382;44.768;17.206;2023-01-15T18:07:28;11.90;63.60
36352;DHT22;22382;44.768;17.206;2023-01-15T18:09:57;11.90;63.10
36352;DHT22;22382;44.768;17.206;2023-01-15T18:12:25;12.00;62.80
36352;DHT22;22382;44.768;17.206;2023-01-15T18:14:52;12.00;62.80
36352;DHT22;22382;44.768;17.206;2023-01-15T18:17:19;11.90;62.10
36352;DHT22;22382;44.768;17.206;2023-01-15T18:19:46;11.90;62.80
36352;DHT22;22382;44.768;17.206;2023-01-15T18:22:13;11.90;63.10
36352;DHT22;22382;44.768;17.206;2023-01-15T18:24:41;11.90;63.40
36352;DHT22;22382;44.768;17.206;2023-01-15T18:27:08;11.90;62.80
36352;DHT22;22382;44.768;17.206;2023-01-15T18:29:35;11.90;62.20
36352;DHT22;22382;44.768;17.206;2023-01-15T18:32:09;11.90;63.10
36352;DHT22;22382;44.768;17.206;2023-01-15T18:34:36;11.80;63.20
36352;DHT22;22382;44.768;17.206;2023-01-15T18:37:03;11.90;62.30
36352;DHT22;22382;44.768;17.206;2023-01-15T18:39:31;11.90;61.20